sensor_id;sensor_type;location;lat;lon;timestamp;temperature;humidity
19110;DHT22;9687;50.836;12.060;2023-08-01T00:00:34;20.90;90.80
19110;DHT22;9687;50.836;12.060;2023-08-01T00:03:02;21.00;90.80
19110;DHT22;9687;50.836;12.060;2023-08-01T00:05:30;21.00;90.90
19110;DHT22;9687;50.836;12.060;2023-08-01T00:07:57;20.90;90.80
19110;DHT22;9687;50.836;12.060;2023-08-01T00:10:25;21.00;90.90
19110;DHT22;9687;50.836;12.060;2023-08-01T00:12:52;20.90;90.90
19110;DHT22;9687;50.836;12.060;2023-08-01T00:15:20;20.90;90.90
19110;DHT22;9687;50.836;12.060;2023-08-01T00:17:47;20.90;91.00
19110;DHT22;9687;50.836;12.060;2023-08-01T00:20:16;20.90;91.00
19110;DHT22;9687;50.836;12.060;2023-08-01T00:22:43;20.90;91.10
19110;DHT22;9687;50.836;12.060;2023-08-01T00:25:10;20.80;91.10
19110;DHT22;9687;50.836;12.060;2023-08-01T00:27:41;20.80;91.10
19110;DHT22;9687;50.836;12.060;2023-08-01T00:30:09;20.90;91.20
19110;DHT22;9687;50.836;12.060;2023-08-01T00:32:36;20.80;91.10
19110;DHT22;9687;50.836;12.060;2023-08-01T00:35:04;20.80;91.10
19110;DHT22;9687;50.836;12.060;2023-08-01T00:37:33;20.90;91.20
19110;DHT22;9687;50.836;12.060;2023-08-01T00:40:01;20.90;91.20
19110;DHT22;9687;50.836;12.060;2023-08-01T00:42:30;20.90;91.20
19110;DHT22;9687;50.836;12.060;2023-08-01T00:44:57;20.90;91.20
19110;DHT22;9687;50.836;12.060;2023-08-01T00:47:26;20.90;91.20
19110;DHT22;9687;50.836;12.060;2023-08-01T00:49:54;20.90;91.20
19110;DHT22;9687;50.836;12.060;2023-08-01T00:52:22;20.90;91.20
19110;DHT22;9687;50.836;12.060;2023-08-01T00:54:51;20.90;91.20
19110;DHT22;9687;50.836;12.060;2023-08-01T00:57:19;20.90;91.20
19110;DHT22;9687;50.836;12.060;2023-08-01T00:59:46;20.90;91.20
19110;DHT22;9687;50.836;12.060;2023-08-01T01:02:14;20.90;91.20
19110;DHT22;9687;50.836;12.060;2023-08-01T01:04:41;20.80;91.20
19110;DHT22;9687;50.836;12.060;2023-08-01T01:07:08;20.80;91.20
19110;DHT22;9687;50.836;12.060;2023-08-01T01:09:36;20.70;91.30
19110;DHT22;9687;50.836;12.060;2023-08-01T01:12:05;20.70;91.30
19110;DHT22;9687;50.836;12.060;2023-08-01T01:14:35;20.70;91.30
19110;DHT22;9687;50.836;12.060;2023-08-01T01:17:02;20.70;91.30
19110;DHT22;9687;50.836;12.060;2023-08-01T01:19:29;20.80;91.40
19110;DHT22;9687;50.836;12.060;2023-08-01T01:24:44;20.70;91.40
19110;DHT22;9687;50.836;12.060;2023-08-01T01:27:12;20.70;91.40
19110;DHT22;9687;50.836;12.060;2023-08-01T01:29:39;20.70;91.50
19110;DHT22;9687;50.836;12.060;2023-08-01T01:32:07;20.70;91.50
19110;DHT22;9687;50.836;12.060;2023-08-01T01:34:35;20.70;91.50
19110;DHT22;9687;50.836;12.060;2023-08-01T01:37:03;20.70;91.60
19110;DHT22;9687;50.836;12.060;2023-08-01T01:39:31;20.70;91.60
19110;DHT22;9687;50.836;12.060;2023-08-01T01:41:59;20.60;91.60
19110;DHT22;9687;50.836;12.060;2023-08-01T01:44:27;20.60;91.60
19110;DHT22;9687;50.836;12.060;2023-08-01T01:46:55;20.70;92.00
19110;DHT22;9687;50.836;12.060;2023-08-01T01:49:22;20.60;91.70
19110;DHT22;9687;50.836;12.060;2023-08-01T01:51:51;20.60;91.70
19110;DHT22;9687;50.836;12.060;2023-08-01T01:54:18;20.60;91.80
19110;DHT22;9687;50.836;12.060;2023-08-01T01:56:45;20.60;91.80
19110;DHT22;9687;50.836;12.060;2023-08-01T01:59:14;20.50;91.80
19110;DHT22;9687;50.836;12.060;2023-08-01T02:01:41;20.50;91.90
19110;DHT22;9687;50.836;12.060;2023-08-01T02:04:09;20.50;92.00
19110;DHT22;9687;50.836;12.060;2023-08-01T02:06:36;20.50;92.00
19110;DHT22;9687;50.836;12.060;2023-08-01T02:09:03;20.50;92.10
19110;DHT22;9687;50.836;12.060;2023-08-01T02:11:31;20.50;92.20
19110;DHT22;9687;50.836;12.060;2023-08-01T02:13:58;20.50;92.20
19110;DHT22;9687;50.836;12.060;2023-08-01T02:16:29;20.50;92.20
19110;DHT22;9687;50.836;12.060;2023-08-01T02:18:56;20.50;92.30
19110;DHT22;9687;50.836;12.060;2023-08-01T02:21:24;20.50;92.40
19110;DHT22;9687;50.836;12.060;2023-08-01T02:23:51;20.40;92.40
19110;DHT22;9687;50.836;12.060;2023-08-01T02:26:18;20.40;92.50
19110;DHT22;9687;50.836;12.060;2023-08-01T02:28:47;20.40;92.60
19110;DHT22;9687;50.836;12.060;2023-08-01T02:31:14;20.30;92.60
19110;DHT22;9687;50.836;12.060;2023-08-01T02:33:43;20.40;92.70
19110;DHT22;9687;50.836;12.060;2023-08-01T02:36:10;20.40;92.80
19110;DHT22;9687;50.836;12.060;2023-08-01T02:38:37;20.40;92.80
19110;DHT22;9687;50.836;12.060;2023-08-01T02:41:05;20.40;92.90
19110;DHT22;9687;50.836;12.060;2023-08-01T02:43:32;20.40;92.90
19110;DHT22;9687;50.836;12.060;2023-08-01T02:46:00;20.40;93.00
19110;DHT22;9687;50.836;12.060;2023-08-01T02:48:28;20.40;93.40
19110;DHT22;9687;50.836;12.060;2023-08-01T02:50:56;20.40;93.10
19110;DHT22;9687;50.836;12.060;2023-08-01T02:53:23;20.30;93.10
19110;DHT22;9687;50.836;12.060;2023-08-01T02:55:50;20.30;93.20
19110;DHT22;9687;50.836;12.060;2023-08-01T02:58:18;20.40;93.40
19110;DHT22;9687;50.836;12.060;2023-08-01T03:00:45;20.30;93.40
19110;DHT22;9687;50.836;12.060;2023-08-01T03:03:13;20.30;93.50
19110;DHT22;9687;50.836;12.060;2023-08-01T03:05:41;20.30;93.60
19110;DHT22;9687;50.836;12.060;2023-08-01T03:08:09;20.30;93.80
19110;DHT22;9687;50.836;12.060;2023-08-01T03:10:36;20.30;93.90
19110;DHT22;9687;50.836;12.060;2023-08-01T03:13:03;20.20;94.00
19110;DHT22;9687;50.836;12.060;2023-08-01T03:15:31;20.20;94.10
19110;DHT22;9687;50.836;12.060;2023-08-01T03:17:58;20.20;94.20
19110;DHT22;9687;50.836;12.060;2023-08-01T03:20:25;20.20;94.30
19110;DHT22;9687;50.836;12.060;2023-08-01T03:22:52;20.20;94.50
19110;DHT22;9687;50.836;12.060;2023-08-01T03:25:21;20.10;94.60
19110;DHT22;9687;50.836;12.060;2023-08-01T03:27:48;20.10;94.80
19110;DHT22;9687;50.836;12.060;2023-08-01T03:30:15;20.10;95.00
19110;DHT22;9687;50.836;12.060;2023-08-01T03:32:42;20.10;95.10
19110;DHT22;9687;50.836;12.060;2023-08-01T03:35:10;20.00;95.20
19110;DHT22;9687;50.836;12.060;2023-08-01T03:37:37;20.10;95.40
19110;DHT22;9687;50.836;12.060;2023-08-01T03:40:05;20.00;95.50
19110;DHT22;9687;50.836;12.060;2023-08-01T03:42:37;20.00;95.60
19110;DHT22;9687;50.836;12.060;2023-08-01T03:45:06;20.00;95.60
19110;DHT22;9687;50.836;12.060;2023-08-01T03:47:33;20.00;95.60
19110;DHT22;9687;50.836;12.060;2023-08-01T03:50:01;19.90;95.80
19110;DHT22;9687;50.836;12.060;2023-08-01T03:52:28;20.00;95.90
19110;DHT22;9687;50.836;12.060;2023-08-01T03:54:56;20.00;96.00
19110;DHT22;9687;50.836;12.060;2023-08-01T03:57:23;19.90;96.00
19110;DHT22;9687;50.836;12.060;2023-08-01T03:59:52;19.90;96.10
19110;DHT22;9687;50.836;12.060;2023-08-01T04:02:19;19.90;96.10
19110;DHT22;9687;50.836;12.060;2023-08-01T04:04:46;20.00;96.30
19110;DHT22;9687;50.836;12.060;2023-08-01T04:07:13;20.00;96.40
19110;DHT22;9687;50.836;12.060;2023-08-01T04:09:41;19.90;96.40
19110;DHT22;9687;50.836;12.060;2023-08-01T04:12:08;20.00;96.50
19110;DHT22;9687;50.836;12.060;2023-08-01T04:14:36;19.90;96.50
19110;DHT22;9687;50.836;12.060;2023-08-01T04:17:05;20.00;96.60
19110;DHT22;9687;50.836;12.060;2023-08-01T04:19:33;20.00;96.60
19110;DHT22;9687;50.836;12.060;2023-08-01T04:22:00;20.00;96.70
19110;DHT22;9687;50.836;12.060;2023-08-01T04:24:28;20.00;96.70
19110;DHT22;9687;50.836;12.060;2023-08-01T04:26:56;20.00;96.80
19110;DHT22;9687;50.836;12.060;2023-08-01T04:29:23;20.00;96.80
19110;DHT22;9687;50.836;12.060;2023-08-01T04:31:52;20.00;96.90
19110;DHT22;9687;50.836;12.060;2023-08-01T04:34:20;20.00;96.90
19110;DHT22;9687;50.836;12.060;2023-08-01T04:36:47;20.00;97.00
19110;DHT22;9687;50.836;12.060;2023-08-01T04:39:15;20.00;97.00
19110;DHT22;9687;50.836;12.060;2023-08-01T04:41:42;20.00;97.10
19110;DHT22;9687;50.836;12.060;2023-08-01T04:44:10;20.00;97.20
19110;DHT22;9687;50.836;12.060;2023-08-01T04:46:37;20.00;97.20
19110;DHT22;9687;50.836;12.060;2023-08-01T04:49:05;20.00;97.20
19110;DHT22;9687;50.836;12.060;2023-08-01T04:51:33;20.00;97.30
19110;DHT22;9687;50.836;12.060;2023-08-01T04:54:00;20.00;97.40
19110;DHT22;9687;50.836;12.060;2023-08-01T04:56:28;20.00;97.40
19110;DHT22;9687;50.836;12.060;2023-08-01T04:58:55;19.90;97.50
19110;DHT22;9687;50.836;12.060;2023-08-01T05:01:22;19.90;97.80
19110;DHT22;9687;50.836;12.060;2023-08-01T05:03:49;20.00;97.80
19110;DHT22;9687;50.836;12.060;2023-08-01T05:06:17;20.00;97.90
19110;DHT22;9687;50.836;12.060;2023-08-01T05:08:46;19.90;97.90
19110;DHT22;9687;50.836;12.060;2023-08-01T05:11:13;19.90;98.00
19110;DHT22;9687;50.836;12.060;2023-08-01T05:13:40;20.00;98.10
19110;DHT22;9687;50.836;12.060;2023-08-01T05:16:08;20.00;98.10
19110;DHT22;9687;50.836;12.060;2023-08-01T05:18:35;20.00;98.10
19110;DHT22;9687;50.836;12.060;2023-08-01T05:21:02;20.10;98.20
19110;DHT22;9687;50.836;12.060;2023-08-01T05:23:29;20.10;98.20
19110;DHT22;9687;50.836;12.060;2023-08-01T05:25:59;20.10;98.20
19110;DHT22;9687;50.836;12.060;2023-08-01T05:28:28;20.10;98.30
19110;DHT22;9687;50.836;12.060;2023-08-01T05:30:55;20.10;98.30
19110;DHT22;9687;50.836;12.060;2023-08-01T05:33:22;20.10;98.40
19110;DHT22;9687;50.836;12.060;2023-08-01T05:35:50;20.10;98.40
19110;DHT22;9687;50.836;12.060;2023-08-01T05:38:17;20.10;98.50
19110;DHT22;9687;50.836;12.060;2023-08-01T05:40:45;20.20;98.50
19110;DHT22;9687;50.836;12.060;2023-08-01T05:43:13;20.20;98.60
19110;DHT22;9687;50.836;12.060;2023-08-01T05:45:41;20.20;98.60
19110;DHT22;9687;50.836;12.060;2023-08-01T05:48:08;20.20;98.60
19110;DHT22;9687;50.836;12.060;2023-08-01T05:50:36;20.30;98.70
19110;DHT22;9687;50.836;12.060;2023-08-01T05:53:04;20.30;98.70
19110;DHT22;9687;50.836;12.060;2023-08-01T05:55:31;20.30;98.80
19110;DHT22;9687;50.836;12.060;2023-08-01T05:57:58;20.30;98.80
19110;DHT22;9687;50.836;12.060;2023-08-01T06:00:28;20.30;98.80
19110;DHT22;9687;50.836;12.060;2023-08-01T06:02:56;20.30;98.80
19110;DHT22;9687;50.836;12.060;2023-08-01T06:05:24;20.30;98.90
19110;DHT22;9687;50.836;12.060;2023-08-01T06:07:51;20.40;99.00
19110;DHT22;9687;50.836;12.060;2023-08-01T06:10:19;20.30;99.00
19110;DHT22;9687;50.836;12.060;2023-08-01T06:12:46;20.30;99.00
19110;DHT22;9687;50.836;12.060;2023-08-01T06:15:14;20.30;99.20
19110;DHT22;9687;50.836;12.060;2023-08-01T06:17:43;20.40;99.60
19110;DHT22;9687;50.836;12.060;2023-08-01T06:20:11;20.40;99.40
19110;DHT22;9687;50.836;12.060;2023-08-01T06:22:38;20.40;99.40
19110;DHT22;9687;50.836;12.060;2023-08-01T06:25:06;20.30;99.50
19110;DHT22;9687;50.836;12.060;2023-08-01T06:27:34;20.30;99.50
19110;DHT22;9687;50.836;12.060;2023-08-01T06:30:01;20.30;99.50
19110;DHT22;9687;50.836;12.060;2023-08-01T06:32:29;20.30;99.60
19110;DHT22;9687;50.836;12.060;2023-08-01T06:34:57;20.40;99.70
19110;DHT22;9687;50.836;12.060;2023-08-01T06:37:25;20.40;99.80
19110;DHT22;9687;50.836;12.060;2023-08-01T06:39:53;20.30;99.70
19110;DHT22;9687;50.836;12.060;2023-08-01T06:42:20;20.30;99.80
19110;DHT22;9687;50.836;12.060;2023-08-01T06:44:48;20.30;99.90
19110;DHT22;9687;50.836;12.060;2023-08-01T06:47:15;20.30;99.90
19110;DHT22;9687;50.836;12.060;2023-08-01T06:49:43;20.20;99.90
19110;DHT22;9687;50.836;12.060;2023-08-01T06:52:11;20.20;99.90
19110;DHT22;9687;50.836;12.060;2023-08-01T06:54:39;20.10;99.90
19110;DHT22;9687;50.836;12.060;2023-08-01T06:57:06;20.10;99.90
19110;DHT22;9687;50.836;12.060;2023-08-01T06:59:33;20.20;99.90
19110;DHT22;9687;50.836;12.060;2023-08-01T07:02:02;20.10;99.90
19110;DHT22;9687;50.836;12.060;2023-08-01T07:04:29;20.10;99.90
19110;DHT22;9687;50.836;12.060;2023-08-01T07:06:56;20.10;99.90
19110;DHT22;9687;50.836;12.060;2023-08-01T07:09:25;20.20;99.90
19110;DHT22;9687;50.836;12.060;2023-08-01T07:11:52;20.10;99.90
19110;DHT22;9687;50.836;12.060;2023-08-01T07:14:19;20.10;99.90
19110;DHT22;9687;50.836;12.060;2023-08-01T07:16:46;20.00;99.90
19110;DHT22;9687;50.836;12.060;2023-08-01T07:19:14;20.00;99.90
19110;DHT22;9687;50.836;12.060;2023-08-01T07:21:41;20.00;99.90
19110;DHT22;9687;50.836;12.060;2023-08-01T07:24:10;20.00;99.90
19110;DHT22;9687;50.836;12.060;2023-08-01T07:26:42;20.00;99.90
19110;DHT22;9687;50.836;12.060;2023-08-01T07:29:09;20.00;99.90
19110;DHT22;9687;50.836;12.060;2023-08-01T07:31:37;20.00;99.90
19110;DHT22;9687;50.836;12.060;2023-08-01T07:34:04;20.00;99.90
19110;DHT22;9687;50.836;12.060;2023-08-01T07:36:32;19.90;99.90
19110;DHT22;9687;50.836;12.060;2023-08-01T07:38:59;19.90;99.90
19110;DHT22;9687;50.836;12.060;2023-08-01T07:41:27;19.90;99.90
19110;DHT22;9687;50.836;12.060;2023-08-01T07:43:56;19.90;99.90
19110;DHT22;9687;50.836;12.060;2023-08-01T07:46:23;19.90;99.90
19110;DHT22;9687;50.836;12.060;2023-08-01T07:48:50;19.90;99.90
19110;DHT22;9687;50.836;12.060;2023-08-01T07:51:19;19.90;99.90
19110;DHT22;9687;50.836;12.060;2023-08-01T07:53:46;19.90;99.90
19110;DHT22;9687;50.836;12.060;2023-08-01T07:56:13;19.90;99.90
19110;DHT22;9687;50.836;12.060;2023-08-01T07:58:41;20.00;99.90
19110;DHT22;9687;50.836;12.060;2023-08-01T08:01:10;20.00;99.90
19110;DHT22;9687;50.836;12.060;2023-08-01T08:03:37;20.00;99.90
19110;DHT22;9687;50.836;12.060;2023-08-01T08:06:04;20.00;99.90
19110;DHT22;9687;50.836;12.060;2023-08-01T08:08:31;20.00;99.90
19110;DHT22;9687;50.836;12.060;2023-08-01T08:10:59;20.00;99.90
19110;DHT22;9687;50.836;12.060;2023-08-01T08:13:27;20.10;99.90
19110;DHT22;9687;50.836;12.060;2023-08-01T08:15:55;20.10;99.90
19110;DHT22;9687;50.836;12.060;2023-08-01T08:18:23;20.10;99.90
19110;DHT22;9687;50.836;12.060;2023-08-01T08:20:51;20.10;99.90
19110;DHT22;9687;50.836;12.060;2023-08-01T08:23:18;20.10;99.90
19110;DHT22;9687;50.836;12.060;2023-08-01T08:25:45;20.10;99.90
19110;DHT22;9687;50.836;12.060;2023-08-01T08:28:13;20.10;99.90
19110;DHT22;9687;50.836;12.060;2023-08-01T08:30:40;20.10;99.90
19110;DHT22;9687;50.836;12.060;2023-08-01T08:33:08;20.20;99.90
19110;DHT22;9687;50.836;12.060;2023-08-01T08:35:37;20.20;99.90
19110;DHT22;9687;50.836;12.060;2023-08-01T08:38:04;20.20;99.90
19110;DHT22;9687;50.836;12.060;2023-08-01T08:40:32;20.30;99.90
19110;DHT22;9687;50.836;12.060;2023-08-01T08:42:59;20.30;99.90
19110;DHT22;9687;50.836;12.060;2023-08-01T08:45:28;20.40;99.90
19110;DHT22;9687;50.836;12.060;2023-08-01T08:47:56;20.40;99.90
19110;DHT22;9687;50.836;12.060;2023-08-01T08:50:26;20.50;99.90
19110;DHT22;9687;50.836;12.060;2023-08-01T08:52:56;20.50;99.90
19110;DHT22;9687;50.836;12.060;2023-08-01T08:55:23;20.50;99.90
19110;DHT22;9687;50.836;12.060;2023-08-01T08:57:53;20.60;99.90
19110;DHT22;9687;50.836;12.060;2023-08-01T09:00:20;20.60;99.90
19110;DHT22;9687;50.836;12.060;2023-08-01T09:02:47;20.60;99.90
19110;DHT22;9687;50.836;12.060;2023-08-01T09:05:16;20.70;99.90
19110;DHT22;9687;50.836;12.060;2023-08-01T09:07:43;20.70;99.90
19110;DHT22;9687;50.836;12.060;2023-08-01T09:10:14;20.80;99.90
19110;DHT22;9687;50.836;12.060;2023-08-01T09:12:42;20.80;99.90
19110;DHT22;9687;50.836;12.060;2023-08-01T09:15:09;20.90;99.90
19110;DHT22;9687;50.836;12.060;2023-08-01T09:17:46;20.90;99.90
19110;DHT22;9687;50.836;12.060;2023-08-01T09:20:14;21.00;99.90
19110;DHT22;9687;50.836;12.060;2023-08-01T09:22:42;21.10;99.90
19110;DHT22;9687;50.836;12.060;2023-08-01T09:25:09;21.10;99.90
19110;DHT22;9687;50.836;12.060;2023-08-01T09:27:38;21.20;99.90
19110;DHT22;9687;50.836;12.060;2023-08-01T09:30:06;21.20;99.90
19110;DHT22;9687;50.836;12.060;2023-08-01T09:32:34;21.30;99.90
19110;DHT22;9687;50.836;12.060;2023-08-01T09:35:02;21.30;99.90
19110;DHT22;9687;50.836;12.060;2023-08-01T09:37:37;21.40;99.90
19110;DHT22;9687;50.836;12.060;2023-08-01T09:40:06;21.40;99.90
19110;DHT22;9687;50.836;12.060;2023-08-01T09:42:38;21.40;99.90
19110;DHT22;9687;50.836;12.060;2023-08-01T09:45:07;21.40;99.90
19110;DHT22;9687;50.836;12.060;2023-08-01T09:47:36;21.40;99.90
19110;DHT22;9687;50.836;12.060;2023-08-01T09:50:08;21.40;99.90
19110;DHT22;9687;50.836;12.060;2023-08-01T09:52:35;21.40;99.90
19110;DHT22;9687;50.836;12.060;2023-08-01T09:55:03;21.40;99.90
19110;DHT22;9687;50.836;12.060;2023-08-01T09:57:31;21.40;99.90
19110;DHT22;9687;50.836;12.060;2023-08-01T10:00:03;21.40;99.90
19110;DHT22;9687;50.836;12.060;2023-08-01T10:02:31;21.40;99.90
19110;DHT22;9687;50.836;12.060;2023-08-01T10:04:59;21.40;99.90
19110;DHT22;9687;50.836;12.060;2023-08-01T10:07:28;21.30;99.90
19110;DHT22;9687;50.836;12.060;2023-08-01T10:09:57;21.30;99.90
19110;DHT22;9687;50.836;12.060;2023-08-01T10:12:25;21.30;99.90
19110;DHT22;9687;50.836;12.060;2023-08-01T10:14:54;21.30;99.90
19110;DHT22;9687;50.836;12.060;2023-08-01T10:17:26;21.20;99.90
19110;DHT22;9687;50.836;12.060;2023-08-01T10:19:55;21.20;99.90
19110;DHT22;9687;50.836;12.060;2023-08-01T10:22:23;21.10;99.90
19110;DHT22;9687;50.836;12.060;2023-08-01T10:24:51;21.00;99.90
19110;DHT22;9687;50.836;12.060;2023-08-01T10:27:19;21.00;99.90
19110;DHT22;9687;50.836;12.060;2023-08-01T10:29:55;20.90;99.90
19110;DHT22;9687;50.836;12.060;2023-08-01T10:32:28;20.80;99.90
19110;DHT22;9687;50.836;12.060;2023-08-01T10:34:56;20.80;99.90
19110;DHT22;9687;50.836;12.060;2023-08-01T10:37:23;20.70;99.90
19110;DHT22;9687;50.836;12.060;2023-08-01T10:39:56;20.70;99.90
19110;DHT22;9687;50.836;12.060;2023-08-01T10:42:23;20.70;99.90
19110;DHT22;9687;50.836;12.060;2023-08-01T10:44:51;20.60;99.90
19110;DHT22;9687;50.836;12.060;2023-08-01T10:47:25;20.70;99.90
19110;DHT22;9687;50.836;12.060;2023-08-01T10:49:53;20.70;99.90
19110;DHT22;9687;50.836;12.060;2023-08-01T10:52:22;20.60;99.90
19110;DHT22;9687;50.836;12.060;2023-08-01T10:54:56;20.60;99.90
19110;DHT22;9687;50.836;12.060;2023-08-01T10:57:26;20.70;99.90
19110;DHT22;9687;50.836;12.060;2023-08-01T10:59:54;20.70;99.90
19110;DHT22;9687;50.836;12.060;2023-08-01T11:02:22;20.80;99.90
19110;DHT22;9687;50.836;12.060;2023-08-01T11:05:00;20.80;99.90
19110;DHT22;9687;50.836;12.060;2023-08-01T11:07:28;20.90;99.90
19110;DHT22;9687;50.836;12.060;2023-08-01T11:10:05;21.00;99.90
19110;DHT22;9687;50.836;12.060;2023-08-01T11:12:35;21.10;99.90
19110;DHT22;9687;50.836;12.060;2023-08-01T11:15:03;21.10;99.90
19110;DHT22;9687;50.836;12.060;2023-08-01T11:17:32;21.20;99.90
19110;DHT22;9687;50.836;12.060;2023-08-01T11:20:05;21.30;99.90
19110;DHT22;9687;50.836;12.060;2023-08-01T11:22:33;21.40;99.90
19110;DHT22;9687;50.836;12.060;2023-08-01T11:25:00;21.50;99.90
19110;DHT22;9687;50.836;12.060;2023-08-01T11:27:27;21.60;99.90
19110;DHT22;9687;50.836;12.060;2023-08-01T11:29:55;21.70;99.90
19110;DHT22;9687;50.836;12.060;2023-08-01T11:32:32;21.90;99.90
19110;DHT22;9687;50.836;12.060;2023-08-01T11:35:00;22.00;99.90
19110;DHT22;9687;50.836;12.060;2023-08-01T11:37:29;22.10;99.80
19110;DHT22;9687;50.836;12.060;2023-08-01T11:39:56;22.20;99.60
19110;DHT22;9687;50.836;12.060;2023-08-01T11:42:23;22.30;99.60
19110;DHT22;9687;50.836;12.060;2023-08-01T11:44:51;22.40;99.50
19110;DHT22;9687;50.836;12.060;2023-08-01T11:47:19;22.40;99.20
19110;DHT22;9687;50.836;12.060;2023-08-01T11:49:47;22.50;98.80
19110;DHT22;9687;50.836;12.060;2023-08-01T11:52:24;22.50;98.60
19110;DHT22;9687;50.836;12.060;2023-08-01T11:54:54;22.60;98.70
19110;DHT22;9687;50.836;12.060;2023-08-01T11:57:22;22.80;98.70
19110;DHT22;9687;50.836;12.060;2023-08-01T11:59:50;22.90;98.40
19110;DHT22;9687;50.836;12.060;2023-08-01T12:02:21;23.10;98.10
19110;DHT22;9687;50.836;12.060;2023-08-01T12:04:49;23.20;97.50
19110;DHT22;9687;50.836;12.060;2023-08-01T12:07:17;23.30;97.10
19110;DHT22;9687;50.836;12.060;2023-08-01T12:09:44;23.40;96.70
19110;DHT22;9687;50.836;12.060;2023-08-01T12:12:13;23.40;96.40
19110;DHT22;9687;50.836;12.060;2023-08-01T12:14:42;23.50;96.20
19110;DHT22;9687;50.836;12.060;2023-08-01T12:17:09;23.40;96.00
19110;DHT22;9687;50.836;12.060;2023-08-01T12:19:36;23.40;95.70
19110;DHT22;9687;50.836;12.060;2023-08-01T12:22:04;23.50;95.70
19110;DHT22;9687;50.836;12.060;2023-08-01T12:24:31;23.50;95.70
19110;DHT22;9687;50.836;12.060;2023-08-01T12:26:59;23.50;95.50
19110;DHT22;9687;50.836;12.060;2023-08-01T12:29:28;23.60;95.30
19110;DHT22;9687;50.836;12.060;2023-08-01T12:31:59;23.60;95.10
19110;DHT22;9687;50.836;12.060;2023-08-01T12:34:26;23.60;95.00
19110;DHT22;9687;50.836;12.060;2023-08-01T12:36:53;23.60;94.80
19110;DHT22;9687;50.836;12.060;2023-08-01T12:39:20;23.60;94.70
19110;DHT22;9687;50.836;12.060;2023-08-01T12:41:47;23.60;94.60
19110;DHT22;9687;50.836;12.060;2023-08-01T12:44:14;23.60;94.70
19110;DHT22;9687;50.836;12.060;2023-08-01T12:46:44;23.60;94.60
19110;DHT22;9687;50.836;12.060;2023-08-01T12:49:11;23.60;94.60
19110;DHT22;9687;50.836;12.060;2023-08-01T12:51:39;23.60;94.40
19110;DHT22;9687;50.836;12.060;2023-08-01T12:54:06;23.60;94.10
19110;DHT22;9687;50.836;12.060;2023-08-01T12:56:33;23.70;94.00
19110;DHT22;9687;50.836;12.060;2023-08-01T12:59:00;23.70;93.80
19110;DHT22;9687;50.836;12.060;2023-08-01T13:01:27;23.70;93.80
19110;DHT22;9687;50.836;12.060;2023-08-01T13:03:56;23.70;93.60
19110;DHT22;9687;50.836;12.060;2023-08-01T13:06:23;23.70;93.50
19110;DHT22;9687;50.836;12.060;2023-08-01T13:08:50;23.80;93.20
19110;DHT22;9687;50.836;12.060;2023-08-01T13:11:17;23.80;92.60
19110;DHT22;9687;50.836;12.060;2023-08-01T13:13:45;23.80;92.60
19110;DHT22;9687;50.836;12.060;2023-08-01T13:16:12;23.80;92.40
19110;DHT22;9687;50.836;12.060;2023-08-01T13:18:40;23.80;92.40
19110;DHT22;9687;50.836;12.060;2023-08-01T13:21:10;23.80;92.30
19110;DHT22;9687;50.836;12.060;2023-08-01T13:23:38;23.80;92.00
19110;DHT22;9687;50.836;12.060;2023-08-01T13:26:05;23.80;91.70
19110;DHT22;9687;50.836;12.060;2023-08-01T13:28:33;23.80;91.40
19110;DHT22;9687;50.836;12.060;2023-08-01T13:31:00;23.80;91.30
19110;DHT22;9687;50.836;12.060;2023-08-01T13:33:28;23.70;91.20
19110;DHT22;9687;50.836;12.060;2023-08-01T13:35:55;23.70;91.00
19110;DHT22;9687;50.836;12.060;2023-08-01T13:38:25;23.60;90.80
19110;DHT22;9687;50.836;12.060;2023-08-01T13:40:54;23.60;90.60
19110;DHT22;9687;50.836;12.060;2023-08-01T13:43:21;23.60;90.70
19110;DHT22;9687;50.836;12.060;2023-08-01T13:45:49;23.50;90.60
19110;DHT22;9687;50.836;12.060;2023-08-01T13:48:18;23.50;90.70
19110;DHT22;9687;50.836;12.060;2023-08-01T13:50:45;23.50;90.50
19110;DHT22;9687;50.836;12.060;2023-08-01T13:53:13;23.60;90.60
19110;DHT22;9687;50.836;12.060;2023-08-01T13:55:43;23.60;90.30
19110;DHT22;9687;50.836;12.060;2023-08-01T13:58:10;23.60;90.20
19110;DHT22;9687;50.836;12.060;2023-08-01T14:00:37;23.60;90.00
19110;DHT22;9687;50.836;12.060;2023-08-01T14:03:05;23.60;89.80
19110;DHT22;9687;50.836;12.060;2023-08-01T14:05:32;23.60;89.40
19110;DHT22;9687;50.836;12.060;2023-08-01T14:07:59;23.50;89.20
19110;DHT22;9687;50.836;12.060;2023-08-01T14:10:30;23.50;88.80
19110;DHT22;9687;50.836;12.060;2023-08-01T14:13:00;23.40;88.50
19110;DHT22;9687;50.836;12.060;2023-08-01T14:15:30;23.40;88.50
19110;DHT22;9687;50.836;12.060;2023-08-01T14:17:57;23.40;88.80
19110;DHT22;9687;50.836;12.060;2023-08-01T14:20:24;23.40;88.90
19110;DHT22;9687;50.836;12.060;2023-08-01T14:22:51;23.40;89.00
19110;DHT22;9687;50.836;12.060;2023-08-01T14:25:19;23.40;89.10
19110;DHT22;9687;50.836;12.060;2023-08-01T14:27:47;23.40;89.20
19110;DHT22;9687;50.836;12.060;2023-08-01T14:30:16;23.40;89.20
19110;DHT22;9687;50.836;12.060;2023-08-01T14:32:47;23.40;89.10
19110;DHT22;9687;50.836;12.060;2023-08-01T14:35:17;23.40;88.70
19110;DHT22;9687;50.836;12.060;2023-08-01T14:37:45;23.50;88.30
19110;DHT22;9687;50.836;12.060;2023-08-01T14:40:14;23.40;88.00
19110;DHT22;9687;50.836;12.060;2023-08-01T14:42:42;23.50;87.70
19110;DHT22;9687;50.836;12.060;2023-08-01T14:45:09;23.50;87.20
19110;DHT22;9687;50.836;12.060;2023-08-01T14:47:39;23.50;86.70
19110;DHT22;9687;50.836;12.060;2023-08-01T14:50:07;23.50;86.50
19110;DHT22;9687;50.836;12.060;2023-08-01T14:52:35;23.40;86.30
19110;DHT22;9687;50.836;12.060;2023-08-01T14:55:02;23.40;86.00
19110;DHT22;9687;50.836;12.060;2023-08-01T14:57:29;23.40;85.60
19110;DHT22;9687;50.836;12.060;2023-08-01T14:59:57;23.40;85.80
19110;DHT22;9687;50.836;12.060;2023-08-01T15:02:24;23.40;86.60
19110;DHT22;9687;50.836;12.060;2023-08-01T15:04:53;23.30;87.10
19110;DHT22;9687;50.836;12.060;2023-08-01T15:07:21;23.20;87.60
19110;DHT22;9687;50.836;12.060;2023-08-01T15:09:49;23.20;87.70
19110;DHT22;9687;50.836;12.060;2023-08-01T15:12:17;23.20;88.10
19110;DHT22;9687;50.836;12.060;2023-08-01T15:14:49;23.10;88.40
19110;DHT22;9687;50.836;12.060;2023-08-01T15:17:16;23.10;88.70
19110;DHT22;9687;50.836;12.060;2023-08-01T15:19:43;23.10;89.10
19110;DHT22;9687;50.836;12.060;2023-08-01T15:22:14;23.10;89.50
19110;DHT22;9687;50.836;12.060;2023-08-01T15:24:41;23.00;90.00
19110;DHT22;9687;50.836;12.060;2023-08-01T15:27:08;23.00;89.80
19110;DHT22;9687;50.836;12.060;2023-08-01T15:29:36;22.90;90.00
19110;DHT22;9687;50.836;12.060;2023-08-01T15:32:03;22.90;90.10
19110;DHT22;9687;50.836;12.060;2023-08-01T15:34:31;22.90;90.20
19110;DHT22;9687;50.836;12.060;2023-08-01T15:36:58;22.90;90.40